sensor_id;sensor_type;location;lat;lon;timestamp;P1;durP1;ratioP1;P2;durP2;ratioP2
41861;SDS011;27537;57.134;-2.136;2022-10-16T00:01:13;5.82;;;1.50;;
41861;SDS011;27537;57.134;-2.136;2022-10-16T00:03:41;5.18;;;1.27;;
41861;SDS011;27537;57.134;-2.136;2022-10-16T00:06:09;4.00;;;1.40;;
41861;SDS011;27537;57.134;-2.136;2022-10-16T00:08:37;8.35;;;1.20;;
41861;SDS011;27537;57.134;-2.136;2022-10-16T00:11:09;5.95;;;1.42;;
41861;SDS011;27537;57.134;-2.136;2022-10-16T00:16:06;4.72;;;1.20;;
41861;SDS011;27537;57.134;-2.136;2022-10-16T00:18:33;8.48;;;1.50;;
41861;SDS011;27537;57.134;-2.136;2022-10-16T00:21:05;13.05;;;1.90;;
41861;SDS011;27537;57.134;-2.136;2022-10-16T00:23:37;4.10;;;1.30;;
41861;SDS011;27537;57.134;-2.136;2022-10-16T00:26:06;3.58;;;1.10;;
41861;SDS011;27537;57.134;-2.136;2022-10-16T00:28:35;8.63;;;1.42;;
41861;SDS011;27537;57.134;-2.136;2022-10-16T00:31:03;9.27;;;1.50;;
41861;SDS011;27537;57.134;-2.136;2022-10-16T00:33:34;7.68;;;1.20;;
41861;SDS011;27537;57.134;-2.136;2022-10-16T00:36:03;7.25;;;1.65;;
41861;SDS011;27537;57.134;-2.136;2022-10-16T00:38:31;4.65;;;1.42;;
41861;SDS011;27537;57.134;-2.136;2022-10-16T00:40:58;5.40;;;1.27;;
41861;SDS011;27537;57.134;-2.136;2022-10-16T00:46:22;2.83;;;1.00;;
41861;SDS011;27537;57.134;-2.136;2022-10-16T00:48:56;6.15;;;1.25;;
41861;SDS011;27537;57.134;-2.136;2022-10-16T00:51:41;5.70;;;1.40;;
41861;SDS011;27537;57.134;-2.136;2022-10-16T00:54:16;6.05;;;1.50;;
41861;SDS011;27537;57.134;-2.136;2022-10-16T00:56:47;5.50;;;1.35;;
41861;SDS011;27537;57.134;-2.136;2022-10-16T00:59:16;2.85;;;1.20;;
41861;SDS011;27537;57.134;-2.136;2022-10-16T01:01:46;5.90;;;1.50;;
41861;SDS011;27537;57.134;-2.136;2022-10-16T01:04:13;6.13;;;1.10;;
41861;SDS011;27537;57.134;-2.136;2022-10-16T01:09:17;3.97;;;1.25;;
41861;SDS011;27537;57.134;-2.136;2022-10-16T01:15:01;6.22;;;1.70;;
41861;SDS011;27537;57.134;-2.136;2022-10-16T01:17:37;3.70;;;1.17;;
41861;SDS011;27537;57.134;-2.136;2022-10-16T01:23:04;5.88;;;1.30;;
41861;SDS011;27537;57.134;-2.136;2022-10-16T01:28:20;4.22;;;1.30;;
41861;SDS011;27537;57.134;-2.136;2022-10-16T01:30:52;6.50;;;1.30;;
41861;SDS011;27537;57.134;-2.136;2022-10-16T01:33:30;4.22;;;1.20;;
41861;SDS011;27537;57.134;-2.136;2022-10-16T01:36:07;5.07;;;1.50;;
41861;SDS011;27537;57.134;-2.136;2022-10-16T01:38:39;2.38;;;1.10;;
41861;SDS011;27537;57.134;-2.136;2022-10-16T01:43:45;5.93;;;1.38;;
41861;SDS011;27537;57.134;-2.136;2022-10-16T01:46:17;3.45;;;1.20;;
41861;SDS011;27537;57.134;-2.136;2022-10-16T01:48:47;5.40;;;1.58;;
41861;SDS011;27537;57.134;-2.136;2022-10-16T01:51:15;3.85;;;1.10;;
41861;SDS011;27537;57.134;-2.136;2022-10-16T01:53:46;7.97;;;1.45;;
41861;SDS011;27537;57.134;-2.136;2022-10-16T01:56:16;2.42;;;0.90;;
41861;SDS011;27537;57.134;-2.136;2022-10-16T01:58:51;3.65;;;1.20;;
41861;SDS011;27537;57.134;-2.136;2022-10-16T02:01:28;2.85;;;1.10;;
41861;SDS011;27537;57.134;-2.136;2022-10-16T02:03:57;3.40;;;1.15;;
41861;SDS011;27537;57.134;-2.136;2022-10-16T02:06:30;4.97;;;1.38;;
41861;SDS011;27537;57.134;-2.136;2022-10-16T02:08:57;7.35;;;1.30;;
41861;SDS011;27537;57.134;-2.136;2022-10-16T02:11:24;9.32;;;1.50;;
41861;SDS011;27537;57.134;-2.136;2022-10-16T02:13:52;3.60;;;1.13;;
41861;SDS011;27537;57.134;-2.136;2022-10-16T02:16:26;2.87;;;1.20;;
41861;SDS011;27537;57.134;-2.136;2022-10-16T02:19:00;4.00;;;1.20;;
41861;SDS011;27537;57.134;-2.136;2022-10-16T02:21:39;3.33;;;1.20;;
41861;SDS011;27537;57.134;-2.136;2022-10-16T02:27:14;3.00;;;1.10;;
41861;SDS011;27537;57.134;-2.136;2022-10-16T02:30:07;3.83;;;1.10;;
41861;SDS011;27537;57.134;-2.136;2022-10-16T02:32:41;3.17;;;1.10;;
41861;SDS011;27537;57.134;-2.136;2022-10-16T02:35:11;5.03;;;1.20;;
41861;SDS011;27537;57.134;-2.136;2022-10-16T02:37:39;2.67;;;1.00;;
41861;SDS011;27537;57.134;-2.136;2022-10-16T02:40:07;2.20;;;1.00;;
41861;SDS011;27537;57.134;-2.136;2022-10-16T02:42:35;2.25;;;1.00;;
41861;SDS011;27537;57.134;-2.136;2022-10-16T02:45:03;1.52;;;0.90;;
41861;SDS011;27537;57.134;-2.136;2022-10-16T02:47:32;3.33;;;1.10;;
41861;SDS011;27537;57.134;-2.136;2022-10-16T02:49:59;1.85;;;0.90;;
41861;SDS011;27537;57.134;-2.136;2022-10-16T02:52:26;3.25;;;1.00;;
41861;SDS011;27537;57.134;-2.136;2022-10-16T02:54:53;2.25;;;1.10;;
41861;SDS011;27537;57.134;-2.136;2022-10-16T02:57:20;1.23;;;0.90;;
41861;SDS011;27537;57.134;-2.136;2022-10-16T02:59:50;3.63;;;1.00;;
41861;SDS011;27537;57.134;-2.136;2022-10-16T03:02:17;1.20;;;0.90;;
41861;SDS011;27537;57.134;-2.136;2022-10-16T03:04:43;1.48;;;0.82;;
41861;SDS011;27537;57.134;-2.136;2022-10-16T03:07:10;1.80;;;0.90;;
41861;SDS011;27537;57.134;-2.136;2022-10-16T03:09:37;2.65;;;0.90;;
41861;SDS011;27537;57.134;-2.136;2022-10-16T03:12:04;2.03;;;0.90;;
41861;SDS011;27537;57.134;-2.136;2022-10-16T03:14:31;1.25;;;0.90;;
41861;SDS011;27537;57.134;-2.136;2022-10-16T03:16:58;1.15;;;0.80;;
41861;SDS011;27537;57.134;-2.136;2022-10-16T03:19:25;0.85;;;0.82;;
41861;SDS011;27537;57.134;-2.136;2022-10-16T03:21:51;1.30;;;0.90;;
41861;SDS011;27537;57.134;-2.136;2022-10-16T03:24:18;1.30;;;0.82;;
41861;SDS011;27537;57.134;-2.136;2022-10-16T03:26:45;1.05;;;0.82;;
41861;SDS011;27537;57.134;-2.136;2022-10-16T03:29:11;1.23;;;0.90;;
41861;SDS011;27537;57.134;-2.136;2022-10-16T03:31:38;1.48;;;0.82;;
41861;SDS011;27537;57.134;-2.136;2022-10-16T03:34:05;1.00;;;0.80;;
41861;SDS011;27537;57.134;-2.136;2022-10-16T03:36:32;1.17;;;0.90;;
41861;SDS011;27537;57.134;-2.136;2022-10-16T03:38:58;1.60;;;0.90;;
41861;SDS011;27537;57.134;-2.136;2022-10-16T03:41:25;1.08;;;0.80;;
41861;SDS011;27537;57.134;-2.136;2022-10-16T03:43:52;0.80;;;0.80;;
41861;SDS011;27537;57.134;-2.136;2022-10-16T03:46:18;0.82;;;0.70;;
41861;SDS011;27537;57.134;-2.136;2022-10-16T03:48:45;0.80;;;0.80;;
41861;SDS011;27537;57.134;-2.136;2022-10-16T03:51:12;1.13;;;0.90;;
41861;SDS011;27537;57.134;-2.136;2022-10-16T03:53:39;1.42;;;1.02;;
41861;SDS011;27537;57.134;-2.136;2022-10-16T03:56:06;1.00;;;0.80;;
41861;SDS011;27537;57.134;-2.136;2022-10-16T03:58:33;1.30;;;0.90;;
41861;SDS011;27537;57.134;-2.136;2022-10-16T04:01:00;0.80;;;0.80;;
41861;SDS011;27537;57.134;-2.136;2022-10-16T04:03:26;1.05;;;0.85;;
41861;SDS011;27537;57.134;-2.136;2022-10-16T04:05:53;1.33;;;0.80;;
41861;SDS011;27537;57.134;-2.136;2022-10-16T04:08:20;1.00;;;0.80;;
41861;SDS011;27537;57.134;-2.136;2022-10-16T04:10:47;1.42;;;0.82;;
41861;SDS011;27537;57.134;-2.136;2022-10-16T04:13:14;0.80;;;0.80;;
41861;SDS011;27537;57.134;-2.136;2022-10-16T04:15:41;3.80;;;0.98;;
41861;SDS011;27537;57.134;-2.136;2022-10-16T04:18:08;0.70;;;0.70;;
41861;SDS011;27537;57.134;-2.136;2022-10-16T04:20:35;0.70;;;0.70;;
41861;SDS011;27537;57.134;-2.136;2022-10-16T04:23:02;0.80;;;0.70;;
41861;SDS011;27537;57.134;-2.136;2022-10-16T04:25:29;1.65;;;0.80;;
41861;SDS011;27537;57.134;-2.136;2022-10-16T04:27:56;0.80;;;0.80;;
41861;SDS011;27537;57.134;-2.136;2022-10-16T04:30:23;0.82;;;0.80;;
41861;SDS011;27537;57.134;-2.136;2022-10-16T04:32:50;2.80;;;0.90;;
41861;SDS011;27537;57.134;-2.136;2022-10-16T04:35:18;0.75;;;0.70;;
41861;SDS011;27537;57.134;-2.136;2022-10-16T04:37:47;0.70;;;0.70;;
41861;SDS011;27537;57.134;-2.136;2022-10-16T04:40:14;1.95;;;0.82;;
41861;SDS011;27537;57.134;-2.136;2022-10-16T04:42:40;1.10;;;0.80;;
41861;SDS011;27537;57.134;-2.136;2022-10-16T04:45:07;1.80;;;0.93;;
41861;SDS011;27537;57.134;-2.136;2022-10-16T04:47:39;0.80;;;0.80;;
41861;SDS011;27537;57.134;-2.136;2022-10-16T04:50:06;3.85;;;0.90;;
41861;SDS011;27537;57.134;-2.136;2022-10-16T04:52:33;0.85;;;0.77;;
41861;SDS011;27537;57.134;-2.136;2022-10-16T04:55:05;1.02;;;0.80;;
41861;SDS011;27537;57.134;-2.136;2022-10-16T04:57:32;1.13;;;0.88;;
41861;SDS011;27537;57.134;-2.136;2022-10-16T04:59:59;1.50;;;0.90;;
41861;SDS011;27537;57.134;-2.136;2022-10-16T05:02:26;4.53;;;0.90;;
41861;SDS011;27537;57.134;-2.136;2022-10-16T05:04:53;0.80;;;0.80;;
41861;SDS011;27537;57.134;-2.136;2022-10-16T05:07:20;1.35;;;0.82;;
41861;SDS011;27537;57.134;-2.136;2022-10-16T05:09:47;1.52;;;0.82;;
41861;SDS011;27537;57.134;-2.136;2022-10-16T05:12:13;2.38;;;0.90;;
41861;SDS011;27537;57.134;-2.136;2022-10-16T05:14:40;1.38;;;0.80;;
41861;SDS011;27537;57.134;-2.136;2022-10-16T05:17:07;2.47;;;0.70;;
41861;SDS011;27537;57.134;-2.136;2022-10-16T05:19:33;1.05;;;0.75;;
41861;SDS011;27537;57.134;-2.136;2022-10-16T05:22:01;1.67;;;0.80;;
41861;SDS011;27537;57.134;-2.136;2022-10-16T05:24:27;1.75;;;0.90;;
41861;SDS011;27537;57.134;-2.136;2022-10-16T05:26:54;2.83;;;2.10;;
41861;SDS011;27537;57.134;-2.136;2022-10-16T05:29:21;1.40;;;0.82;;
41861;SDS011;27537;57.134;-2.136;2022-10-16T05:31:51;1.30;;;0.80;;
41861;SDS011;27537;57.134;-2.136;2022-10-16T05:34:19;1.02;;;0.80;;
41861;SDS011;27537;57.134;-2.136;2022-10-16T05:36:47;1.10;;;0.80;;
41861;SDS011;27537;57.134;-2.136;2022-10-16T05:39:14;2.90;;;1.17;;
41861;SDS011;27537;57.134;-2.136;2022-10-16T05:41:42;1.40;;;0.80;;
41861;SDS011;27537;57.134;-2.136;2022-10-16T05:44:09;1.50;;;0.85;;
41861;SDS011;27537;57.134;-2.136;2022-10-16T05:46:36;1.90;;;0.82;;
41861;SDS011;27537;57.134;-2.136;2022-10-16T05:49:03;1.65;;;0.90;;
41861;SDS011;27537;57.134;-2.136;2022-10-16T05:51:30;1.55;;;0.90;;
41861;SDS011;27537;57.134;-2.136;2022-10-16T05:53:56;1.70;;;0.80;;
41861;SDS011;27537;57.134;-2.136;2022-10-16T05:56:23;1.50;;;0.90;;
41861;SDS011;27537;57.134;-2.136;2022-10-16T05:58:50;1.17;;;0.90;;
41861;SDS011;27537;57.134;-2.136;2022-10-16T06:01:17;1.15;;;0.90;;
41861;SDS011;27537;57.134;-2.136;2022-10-16T06:03:45;0.80;;;0.80;;
41861;SDS011;27537;57.134;-2.136;2022-10-16T06:06:13;2.33;;;0.90;;
41861;SDS011;27537;57.134;-2.136;2022-10-16T06:08:42;1.35;;;0.95;;
41861;SDS011;27537;57.134;-2.136;2022-10-16T06:11:13;1.95;;;0.90;;
41861;SDS011;27537;57.134;-2.136;2022-10-16T06:13:42;2.20;;;0.90;;
41861;SDS011;27537;57.134;-2.136;2022-10-16T06:16:09;1.08;;;0.90;;
41861;SDS011;27537;57.134;-2.136;2022-10-16T06:18:37;2.22;;;0.93;;
41861;SDS011;27537;57.134;-2.136;2022-10-16T06:21:37;1.63;;;1.00;;
41861;SDS011;27537;57.134;-2.136;2022-10-16T06:23:57;2.95;;;1.00;;
41861;SDS011;27537;57.134;-2.136;2022-10-16T06:26:25;2.78;;;0.98;;
41861;SDS011;27537;57.134;-2.136;2022-10-16T06:28:54;1.77;;;0.90;;
41861;SDS011;27537;57.134;-2.136;2022-10-16T06:31:22;1.88;;;1.00;;
41861;SDS011;27537;57.134;-2.136;2022-10-16T06:33:53;2.97;;;1.02;;
41861;SDS011;27537;57.134;-2.136;2022-10-16T06:36:20;2.67;;;0.80;;
41861;SDS011;27537;57.134;-2.136;2022-10-16T06:38:47;1.48;;;0.90;;
41861;SDS011;27537;57.134;-2.136;2022-10-16T06:41:15;2.60;;;0.93;;
41861;SDS011;27537;57.134;-2.136;2022-10-16T06:43:43;1.38;;;0.80;;
41861;SDS011;27537;57.134;-2.136;2022-10-16T06:46:12;1.30;;;0.90;;
41861;SDS011;27537;57.134;-2.136;2022-10-16T06:48:40;1.20;;;0.90;;
41861;SDS011;27537;57.134;-2.136;2022-10-16T06:53:38;1.30;;;0.90;;
41861;SDS011;27537;57.134;-2.136;2022-10-16T06:56:27;1.55;;;1.00;;
41861;SDS011;27537;57.134;-2.136;2022-10-16T06:58:56;1.65;;;0.80;;
41861;SDS011;27537;57.134;-2.136;2022-10-16T07:01:23;1.63;;;1.00;;
41861;SDS011;27537;57.134;-2.136;2022-10-16T07:03:50;3.35;;;0.90;;
41861;SDS011;27537;57.134;-2.136;2022-10-16T07:06:18;1.48;;;0.93;;
41861;SDS011;27537;57.134;-2.136;2022-10-16T07:08:47;1.15;;;0.90;;
41861;SDS011;27537;57.134;-2.136;2022-10-16T07:11:15;1.25;;;0.90;;
41861;SDS011;27537;57.134;-2.136;2022-10-16T07:13:44;1.17;;;0.90;;
41861;SDS011;27537;57.134;-2.136;2022-10-16T07:16:20;1.70;;;1.00;;
41861;SDS011;27537;57.134;-2.136;2022-10-16T07:18:48;2.88;;;0.90;;
41861;SDS011;27537;57.134;-2.136;2022-10-16T07:21:21;1.20;;;0.88;;
41861;SDS011;27537;57.134;-2.136;2022-10-16T07:23:52;1.80;;;0.90;;
41861;SDS011;27537;57.134;-2.136;2022-10-16T07:26:20;0.90;;;0.80;;
41861;SDS011;27537;57.134;-2.136;2022-10-16T07:28:49;0.88;;;0.82;;
41861;SDS011;27537;57.134;-2.136;2022-10-16T07:31:17;3.50;;;1.50;;
41861;SDS011;27537;57.134;-2.136;2022-10-16T07:33:45;1.20;;;0.90;;
41861;SDS011;27537;57.134;-2.136;2022-10-16T07:36:17;1.13;;;0.82;;
41861;SDS011;27537;57.134;-2.136;2022-10-16T07:38:46;1.88;;;1.00;;
41861;SDS011;27537;57.134;-2.136;2022-10-16T07:41:15;1.05;;;0.80;;
41861;SDS011;27537;57.134;-2.136;2022-10-16T07:43:46;0.90;;;0.80;;
41861;SDS011;27537;57.134;-2.136;2022-10-16T07:46:14;1.55;;;0.80;;
41861;SDS011;27537;57.134;-2.136;2022-10-16T07:48:43;0.70;;;0.70;;
41861;SDS011;27537;57.134;-2.136;2022-10-16T07:51:17;4.22;;;1.33;;
41861;SDS011;27537;57.134;-2.136;2022-10-16T07:53:45;2.80;;;1.07;;
41861;SDS011;27537;57.134;-2.136;2022-10-16T07:56:13;2.83;;;0.98;;
41861;SDS011;27537;57.134;-2.136;2022-10-16T07:58:41;1.20;;;0.80;;
41861;SDS011;27537;57.134;-2.136;2022-10-16T08:01:09;1.20;;;0.85;;
41861;SDS011;27537;57.134;-2.136;2022-10-16T08:03:37;1.48;;;0.80;;
41861;SDS011;27537;57.134;-2.136;2022-10-16T08:06:04;1.30;;;0.80;;
41861;SDS011;27537;57.134;-2.136;2022-10-16T08:08:31;1.40;;;0.75;;
41861;SDS011;27537;57.134;-2.136;2022-10-16T08:10:58;2.22;;;0.80;;
41861;SDS011;27537;57.134;-2.136;2022-10-16T08:13:25;7.10;;;1.10;;
41861;SDS011;27537;57.134;-2.136;2022-10-16T08:15:53;5.47;;;1.27;;
41861;SDS011;27537;57.134;-2.136;2022-10-16T08:18:20;1.35;;;0.70;;
41861;SDS011;27537;57.134;-2.136;2022-10-16T08:20:47;2.67;;;1.00;;
41861;SDS011;27537;57.134;-2.136;2022-10-16T08:23:14;1.17;;;0.80;;
41861;SDS011;27537;57.134;-2.136;2022-10-16T08:25:41;2.63;;;1.05;;
41861;SDS011;27537;57.134;-2.136;2022-10-16T08:28:08;1.67;;;0.75;;
41861;SDS011;27537;57.134;-2.136;2022-10-16T08:30:37;0.70;;;0.70;;
41861;SDS011;27537;57.134;-2.136;2022-10-16T08:33:04;1.67;;;0.80;;
41861;SDS011;27537;57.134;-2.136;2022-10-16T08:35:32;1.80;;;0.82;;
41861;SDS011;27537;57.134;-2.136;2022-10-16T08:37:59;1.92;;;0.65;;
41861;SDS011;27537;57.134;-2.136;2022-10-16T08:40:30;1.05;;;0.73;;
41861;SDS011;27537;57.134;-2.136;2022-10-16T08:45:46;1.30;;;0.80;;
41861;SDS011;27537;57.134;-2.136;2022-10-16T08:50:57;2.08;;;0.80;;
41861;SDS011;27537;57.134;-2.136;2022-10-16T08:53:26;1.65;;;0.80;;
41861;SDS011;27537;57.134;-2.136;2022-10-16T08:55:56;2.03;;;1.00;;
41861;SDS011;27537;57.134;-2.136;2022-10-16T08:58:28;1.30;;;0.80;;
41861;SDS011;27537;57.134;-2.136;2022-10-16T09:00:57;2.17;;;0.90;;
41861;SDS011;27537;57.134;-2.136;2022-10-16T09:06:35;2.55;;;0.90;;
41861;SDS011;27537;57.134;-2.136;2022-10-16T09:12:16;3.00;;;1.10;;
41861;SDS011;27537;57.134;-2.136;2022-10-16T09:17:32;2.58;;;0.95;;
41861;SDS011;27537;57.134;-2.136;2022-10-16T09:22:36;3.78;;;0.80;;
41861;SDS011;27537;57.134;-2.136;2022-10-16T09:25:10;0.80;;;0.80;;
41861;SDS011;27537;57.134;-2.136;2022-10-16T09:27:42;1.33;;;0.80;;
41861;SDS011;27537;57.134;-2.136;2022-10-16T09:30:16;2.47;;;0.90;;
41861;SDS011;27537;57.134;-2.136;2022-10-16T09:32:45;1.63;;;0.90;;
41861;SDS011;27537;57.134;-2.136;2022-10-16T09:35:16;2.25;;;0.90;;
41861;SDS011;27537;57.134;-2.136;2022-10-16T09:37:47;0.95;;;0.80;;
41861;SDS011;27537;57.134;-2.136;2022-10-16T09:40:35;1.40;;;0.80;;
41861;SDS011;27537;57.134;-2.136;2022-10-16T09:46:06;1.08;;;0.82;;
41861;SDS011;27537;57.134;-2.136;2022-10-16T09:48:51;0.70;;;0.70;;
41861;SDS011;27537;57.134;-2.136;2022-10-16T09:51:23;0.93;;;0.80;;
41861;SDS011;27537;57.134;-2.136;2022-10-16T09:54:11;0.93;;;0.80;;
41861;SDS011;27537;57.134;-2.136;2022-10-16T09:56:40;1.75;;;0.70;;
41861;SDS011;27537;57.134;-2.136;2022-10-16T10:01:50;1.23;;;0.80;;
41861;SDS011;27537;57.134;-2.136;2022-10-16T10:04:19;1.50;;;0.75;;
41861;SDS011;27537;57.134;-2.136;2022-10-16T10:06:48;1.60;;;0.77;;
41861;SDS011;27537;57.134;-2.136;2022-10-16T10:09:26;1.35;;;0.80;;
41861;SDS011;27537;57.134;-2.136;2022-10-16T10:12:00;0.85;;;0.73;;
41861;SDS011;27537;57.134;-2.136;2022-10-16T10:14:41;0.93;;;0.70;;
41861;SDS011;27537;57.134;-2.136;2022-10-16T10:17:20;0.93;;;0.70;;
41861;SDS011;27537;57.134;-2.136;2022-10-16T10:19:49;0.60;;;0.60;;
41861;SDS011;27537;57.134;-2.136;2022-10-16T10:22:17;0.63;;;0.63;;
41861;SDS011;27537;57.134;-2.136;2022-10-16T10:28:15;0.82;;;0.80;;
41861;SDS011;27537;57.134;-2.136;2022-10-16T10:33:16;0.70;;;0.70;;
41861;SDS011;27537;57.134;-2.136;2022-10-16T10:38:25;0.60;;;0.60;;
41861;SDS011;27537;57.134;-2.136;2022-10-16T10:46:50;0.80;;;0.73;;
41861;SDS011;27537;57.134;-2.136;2022-10-16T10:55:14;1.08;;;0.73;;
41861;SDS011;27537;57.134;-2.136;2022-10-16T11:06:19;1.08;;;0.80;;
41861;SDS011;27537;57.134;-2.136;2022-10-16T11:08:52;0.60;;;0.60;;
41861;SDS011;27537;57.134;-2.136;2022-10-16T11:11:30;1.45;;;0.70;;
41861;SDS011;27537;57.134;-2.136;2022-10-16T11:14:20;0.93;;;0.70;;
41861;SDS011;27537;57.134;-2.136;2022-10-16T11:16:54;2.22;;;1.00;;
41861;SDS011;27537;57.134;-2.136;2022-10-16T11:22:09;0.80;;;0.70;;
41861;SDS011;27537;57.134;-2.136;2022-10-16T11:24:55;2.85;;;0.70;;
41861;SDS011;27537;57.134;-2.136;2022-10-16T11:27:36;3.10;;;0.70;;
41861;SDS011;27537;57.134;-2.136;2022-10-16T11:30:18;0.73;;;0.70;;
41861;SDS011;27537;57.134;-2.136;2022-10-16T11:32:57;1.40;;;0.70;;
41861;SDS011;27537;57.134;-2.136;2022-10-16T11:38:38;0.77;;;0.70;;
41861;SDS011;27537;57.134;-2.136;2022-10-16T11:41:11;0.70;;;0.70;;
41861;SDS011;27537;57.134;-2.136;2022-10-16T11:43:43;3.22;;;1.50;;
41861;SDS011;27537;57.134;-2.136;2022-10-16T11:46:20;6.78;;;1.20;;
41861;SDS011;27537;57.134;-2.136;2022-10-16T11:51:42;1.58;;;0.60;;
41861;SDS011;27537;57.134;-2.136;2022-10-16T11:57:09;1.33;;;0.75;;
41861;SDS011;27537;57.134;-2.136;2022-10-16T12:00:02;0.73;;;0.70;;
41861;SDS011;27537;57.134;-2.136;2022-10-16T12:08:16;1.27;;;0.80;;
41861;SDS011;27537;57.134;-2.136;2022-10-16T12:10:44;1.27;;;0.80;;
41861;SDS011;27537;57.134;-2.136;2022-10-16T12:16:06;0.70;;;0.70;;
41861;SDS011;27537;57.134;-2.136;2022-10-16T12:19:15;1.40;;;0.95;;
41861;SDS011;27537;57.134;-2.136;2022-10-16T12:21:46;1.02;;;0.70;;
41861;SDS011;27537;57.134;-2.136;2022-10-16T12:24:21;2.08;;;0.80;;
41861;SDS011;27537;57.134;-2.136;2022-10-16T12:26:56;1.88;;;1.00;;
41861;SDS011;27537;57.134;-2.136;2022-10-16T12:32:02;1.48;;;0.82;;
41861;SDS011;27537;57.134;-2.136;2022-10-16T12:37:14;2.28;;;0.95;;
41861;SDS011;27537;57.134;-2.136;2022-10-16T12:39:48;3.35;;;0.80;;
41861;SDS011;27537;57.134;-2.136;2022-10-16T12:44:55;0.70;;;0.70;;
41861;SDS011;27537;57.134;-2.136;2022-10-16T12:49:58;4.38;;;0.90;;
41861;SDS011;27537;57.134;-2.136;2022-10-16T12:55:00;2.35;;;0.90;;
41861;SDS011;27537;57.134;-2.136;2022-10-16T13:20:23;2.70;;;0.88;;
41861;SDS011;27537;57.134;-2.136;2022-10-16T13:25:49;1.10;;;0.80;;
41861;SDS011;27537;57.134;-2.136;2022-10-16T13:28:31;1.02;;;0.65;;
41861;SDS011;27537;57.134;-2.136;2022-10-16T13:31:01;1.25;;;0.80;;
41861;SDS011;27537;57.134;-2.136;2022-10-16T13:33:39;2.45;;;0.90;;
41861;SDS011;27537;57.134;-2.136;2022-10-16T13:36:21;2.72;;;0.95;;
41861;SDS011;27537;57.134;-2.136;2022-10-16T13:41:38;3.42;;;1.20;;
41861;SDS011;27537;57.134;-2.136;2022-10-16T13:44:05;5.68;;;1.77;;
41861;SDS011;27537;57.134;-2.136;2022-10-16T13:46:38;1.95;;;0.93;;
41861;SDS011;27537;57.134;-2.136;2022-10-16T13:49:06;2.95;;;1.10;;
41861;SDS011;27537;57.134;-2.136;2022-10-16T13:51:39;2.13;;;0.90;;
41861;SDS011;27537;57.134;-2.136;2022-10-16T13:54:07;4.68;;;1.13;;
41861;SDS011;27537;57.134;-2.136;2022-10-16T13:56:38;4.05;;;0.98;;
41861;SDS011;27537;57.134;-2.136;2022-10-16T13:59:06;2.70;;;0.90;;
41861;SDS011;27537;57.134;-2.136;2022-10-16T14:04:16;5.35;;;0.88;;
41861;SDS011;27537;57.134;-2.136;2022-10-16T14:06:45;2.47;;;0.88;;
41861;SDS011;27537;57.134;-2.136;2022-10-16T14:09:20;2.58;;;0.80;;
41861;SDS011;27537;57.134;-2.136;2022-10-16T14:14:27;1.20;;;0.70;;
41861;SDS011;27537;57.134;-2.136;2022-10-16T14:17:02;1.77;;;0.90;;
41861;SDS011;27537;57.134;-2.136;2022-10-16T14:19:29;3.97;;;0.90;;
41861;SDS011;27537;57.134;-2.136;2022-10-16T14:21:58;6.00;;;1.13;;
41861;SDS011;27537;57.134;-2.136;2022-10-16T14:24:30;3.95;;;1.15;;
41861;SDS011;27537;57.134;-2.136;2022-10-16T14:26:59;4.78;;;0.98;;
41861;SDS011;27537;57.134;-2.136;2022-10-16T14:29:28;4.47;;;1.10;;
41861;SDS011;27537;57.134;-2.136;2022-10-16T14:32:01;5.10;;;1.00;;
41861;SDS011;27537;57.134;-2.136;2022-10-16T14:34:35;5.03;;;1.27;;
41861;SDS011;27537;57.134;-2.136;2022-10-16T14:37:15;2.15;;;0.82;;
41861;SDS011;27537;57.134;-2.136;2022-10-16T14:39:53;3.35;;;1.00;;
41861;SDS011;27537;57.134;-2.136;2022-10-16T14:42:22;3.00;;;0.90;;
41861;SDS011;27537;57.134;-2.136;2022-10-16T14:44:51;3.40;;;1.27;;
41861;SDS011;27537;57.134;-2.136;2022-10-16T14:47:20;2.03;;;0.85;;
41861;SDS011;27537;57.134;-2.136;2022-10-16T14:49:53;4.30;;;1.05;;
41861;SDS011;27537;57.134;-2.136;2022-10-16T14:52:22;2.88;;;0.90;;
41861;SDS011;27537;57.134;-2.136;2022-10-16T14:54:49;5.13;;;1.13;;
41861;SDS011;27537;57.134;-2.136;2022-10-16T14:57:17;2.58;;;0.82;;
41861;SDS011;27537;57.134;-2.136;2022-10-16T14:59:46;4.05;;;1.08;;
41861;SDS011;27537;57.134;-2.136;2022-10-16T15:04:47;3.42;;;1.05;;
41861;SDS011;27537;57.134;-2.136;2022-10-16T15:07:14;2.47;;;1.00;;
41861;SDS011;27537;57.134;-2.136;2022-10-16T15:09:41;5.15;;;1.10;;
41861;SDS011;27537;57.134;-2.136;2022-10-16T15:12:14;4.45;;;1.00;;
41861;SDS011;27537;57.134;-2.136;2022-10-16T15:14:42;4.47;;;1.10;;
41861;SDS011;27537;57.134;-2.136;2022-10-16T15:17:11;6.22;;;1.40;;
41861;SDS011;27537;57.134;-2.136;2022-10-16T15:19:39;6.40;;;1.48;;
41861;SDS011;27537;57.134;-2.136;2022-10-16T15:22:06;6.45;;;1.50;;
41861;SDS011;27537;57.134;-2.136;2022-10-16T15:24:33;2.83;;;1.20;;
41861;SDS011;27537;57.134;-2.136;2022-10-16T15:26:59;2.05;;;1.00;;
41861;SDS011;27537;57.134;-2.136;2022-10-16T15:29:26;4.63;;;1.10;;
41861;SDS011;27537;57.134;-2.136;2022-10-16T15:31:55;4.93;;;1.00;;
41861;SDS011;27537;57.134;-2.136;2022-10-16T15:34:22;2.22;;;0.90;;
41861;SDS011;27537;57.134;-2.136;2022-10-16T15:36:51;4.28;;;1.15;;
41861;SDS011;27537;57.134;-2.136;2022-10-16T15:39:20;3.95;;;1.23;;
41861;SDS011;27537;57.134;-2.136;2022-10-16T15:41:47;3.50;;;1.05;;
41861;SDS011;27537;57.134;-2.136;2022-10-16T15:44:17;4.20;;;1.00;;
41861;SDS011;27537;57.134;-2.136;2022-10-16T15:46:46;6.03;;;1.27;;
41861;SDS011;27537;57.134;-2.136;2022-10-16T15:49:12;3.60;;;1.10;;
41861;SDS011;27537;57.134;-2.136;2022-10-16T15:51:40;3.55;;;1.00;;
41861;SDS011;27537;57.134;-2.136;2022-10-16T15:54:08;3.20;;;1.10;;
41861;SDS011;27537;57.134;-2.136;2022-10-16T15:56:35;5.45;;;0.90;;
41861;SDS011;27537;57.134;-2.136;2022-10-16T15:59:03;4.90;;;1.40;;
41861;SDS011;27537;57.134;-2.136;2022-10-16T16:01:34;6.65;;;1.50;;
41861;SDS011;27537;57.134;-2.136;2022-10-16T16:04:02;6.15;;;1.48;;
41861;SDS011;27537;57.134;-2.136;2022-10-16T16:06:40;3.80;;;1.13;;
41861;SDS011;27537;57.134;-2.136;2022-10-16T16:09:11;6.03;;;1.73;;
41861;SDS011;27537;57.134;-2.136;2022-10-16T16:11:40;4.47;;;1.02;;
41861;SDS011;27537;57.134;-2.136;2022-10-16T16:14:07;2.75;;;1.02;;
41861;SDS011;27537;57.134;-2.136;2022-10-16T16:16:37;4.22;;;1.30;;
41861;SDS011;27537;57.134;-2.136;2022-10-16T16:19:04;6.55;;;1.80;;
41861;SDS011;27537;57.134;-2.136;2022-10-16T16:21:39;7.03;;;1.42;;
41861;SDS011;27537;57.134;-2.136;2022-10-16T16:24:06;4.53;;;1.13;;
41861;SDS011;27537;57.134;-2.136;2022-10-16T16:26:35;4.75;;;1.30;;
41861;SDS011;27537;57.134;-2.136;2022-10-16T16:29:05;5.45;;;1.63;;
41861;SDS011;27537;57.134;-2.136;2022-10-16T16:31:33;4.28;;;1.45;;
41861;SDS011;27537;57.134;-2.136;2022-10-16T16:34:01;4.45;;;1.20;;
41861;SDS011;27537;57.134;-2.136;2022-10-16T16:36:27;4.68;;;1.23;;
41861;SDS011;27537;57.134;-2.136;2022-10-16T16:38:54;4.38;;;1.45;;
41861;SDS011;27537;57.134;-2.136;2022-10-16T16:41:22;6.45;;;1.30;;
41861;SDS011;27537;57.134;-2.136;2022-10-16T16:43:51;5.22;;;1.63;;
41861;SDS011;27537;57.134;-2.136;2022-10-16T16:46:19;4.07;;;1.40;;
41861;SDS011;27537;57.134;-2.136;2022-10-16T16:48:46;7.82;;;2.53;;
41861;SDS011;27537;57.134;-2.136;2022-10-16T16:51:14;7.35;;;2.17;;
41861;SDS011;27537;57.134;-2.136;2022-10-16T16:53:44;4.47;;;1.33;;
41861;SDS011;27537;57.134;-2.136;2022-10-16T16:56:14;6.55;;;1.75;;
41861;SDS011;27537;57.134;-2.136;2022-10-16T16:58:41;5.18;;;1.75;;
41861;SDS011;27537;57.134;-2.136;2022-10-16T17:01:09;8.57;;;2.10;;
41861;SDS011;27537;57.134;-2.136;2022-10-16T17:03:52;6.90;;;2.25;;
41861;SDS011;27537;57.134;-2.136;2022-10-16T17:06:22;6.15;;;1.70;;
41861;SDS011;27537;57.134;-2.136;2022-10-16T17:08:51;7.38;;;2.00;;
41861;SDS011;27537;57.134;-2.136;2022-10-16T17:11:19;8.77;;;1.95;;
41861;SDS011;27537;57.134;-2.136;2022-10-16T17:13:49;7.43;;;1.95;;
41861;SDS011;27537;57.134;-2.136;2022-10-16T17:16:25;6.35;;;1.90;;